sensor_id;sensor_type;location;lat;lon;timestamp;temperature;humidity
12411;DHT22;6269;51.044;13.692;2022-08-01T20:33:27;35.80;1.00
12411;DHT22;6269;51.044;13.692;2022-08-01T20:36:03;21.60;1.00
12411;DHT22;6269;51.044;13.692;2022-08-01T20:38:56;21.30;1.00
12411;DHT22;6269;51.044;13.692;2022-08-01T20:41:31;21.20;1.00
12411;DHT22;6269;51.044;13.692;2022-08-01T20:44:09;21.10;1.00
12411;DHT22;6269;51.044;13.692;2022-08-01T20:46:46;21.10;1.00
12411;DHT22;6269;51.044;13.692;2022-08-01T20:49:26;21.00;1.00
12411;DHT22;6269;51.044;13.692;2022-08-01T20:52:01;20.90;99.90
12411;DHT22;6269;51.044;13.692;2022-08-01T20:54:43;20.90;99.90
12411;DHT22;6269;51.044;13.692;2022-08-01T20:57:21;20.80;99.90
12411;DHT22;6269;51.044;13.692;2022-08-01T21:00:00;20.80;99.90
12411;DHT22;6269;51.044;13.692;2022-08-01T21:02:45;20.80;99.90
12411;DHT22;6269;51.044;13.692;2022-08-01T21:05:28;20.70;1.00
12411;DHT22;6269;51.044;13.692;2022-08-01T21:08:09;20.70;1.00
12411;DHT22;6269;51.044;13.692;2022-08-01T21:10:56;20.60;1.00
12411;DHT22;6269;51.044;13.692;2022-08-01T21:13:37;20.50;99.90
12411;DHT22;6269;51.044;13.692;2022-08-01T21:16:13;20.50;1.00
12411;DHT22;6269;51.044;13.692;2022-08-01T21:18:57;20.50;1.00
12411;DHT22;6269;51.044;13.692;2022-08-01T21:22:02;20.50;1.00
12411;DHT22;6269;51.044;13.692;2022-08-01T21:24:47;20.40;1.00
12411;DHT22;6269;51.044;13.692;2022-08-01T21:27:30;20.40;1.00
12411;DHT22;6269;51.044;13.692;2022-08-01T21:30:08;20.40;1.00
12411;DHT22;6269;51.044;13.692;2022-08-01T21:32:46;20.40;9.00
12411;DHT22;6269;51.044;13.692;2022-08-01T21:35:24;20.40;1.00
12411;DHT22;6269;51.044;13.692;2022-08-01T21:38:03;20.30;43.10
12411;DHT22;6269;51.044;13.692;2022-08-01T21:40:39;20.30;99.90
12411;DHT22;6269;51.044;13.692;2022-08-01T21:43:15;20.20;99.90
12411;DHT22;6269;51.044;13.692;2022-08-01T21:45:51;20.20;1.00
12411;DHT22;6269;51.044;13.692;2022-08-01T21:48:30;20.20;99.90
12411;DHT22;6269;51.044;13.692;2022-08-01T21:51:18;20.20;99.90
12411;DHT22;6269;51.044;13.692;2022-08-01T21:54:03;20.10;99.90
12411;DHT22;6269;51.044;13.692;2022-08-01T21:56:50;20.20;99.90
12411;DHT22;6269;51.044;13.692;2022-08-01T21:59:36;20.30;1.00
12411;DHT22;6269;51.044;13.692;2022-08-01T22:02:18;20.30;1.00
12411;DHT22;6269;51.044;13.692;2022-08-01T22:05:03;20.30;93.70
12411;DHT22;6269;51.044;13.692;2022-08-01T22:07:42;20.30;99.90
12411;DHT22;6269;51.044;13.692;2022-08-01T22:10:23;20.30;99.90
12411;DHT22;6269;51.044;13.692;2022-08-01T22:12:59;20.20;1.00
12411;DHT22;6269;51.044;13.692;2022-08-01T22:15:35;20.20;99.90
12411;DHT22;6269;51.044;13.692;2022-08-01T22:18:17;20.10;1.00
12411;DHT22;6269;51.044;13.692;2022-08-01T22:20:53;20.10;99.90
12411;DHT22;6269;51.044;13.692;2022-08-01T22:23:28;19.90;1.00
12411;DHT22;6269;51.044;13.692;2022-08-01T22:26:11;19.90;99.90
12411;DHT22;6269;51.044;13.692;2022-08-01T22:28:50;19.80;1.00
12411;DHT22;6269;51.044;13.692;2022-08-01T22:31:25;19.70;1.00
12411;DHT22;6269;51.044;13.692;2022-08-01T22:34:01;19.70;99.90
12411;DHT22;6269;51.044;13.692;2022-08-01T22:36:36;19.80;99.90
12411;DHT22;6269;51.044;13.692;2022-08-01T22:39:14;19.70;1.00
12411;DHT22;6269;51.044;13.692;2022-08-01T22:41:55;19.60;1.00
12411;DHT22;6269;51.044;13.692;2022-08-01T22:44:45;19.60;99.90
12411;DHT22;6269;51.044;13.692;2022-08-01T22:47:34;19.60;31.80
12411;DHT22;6269;51.044;13.692;2022-08-01T22:50:15;19.60;1.00
12411;DHT22;6269;51.044;13.692;2022-08-01T22:53:11;19.60;77.00
12411;DHT22;6269;51.044;13.692;2022-08-01T22:55:51;19.60;1.00
12411;DHT22;6269;51.044;13.692;2022-08-01T22:58:38;19.60;1.00
12411;DHT22;6269;51.044;13.692;2022-08-01T23:01:19;19.60;1.00
12411;DHT22;6269;51.044;13.692;2022-08-01T23:03:56;19.60;99.90
12411;DHT22;6269;51.044;13.692;2022-08-01T23:06:36;19.50;1.00
12411;DHT22;6269;51.044;13.692;2022-08-01T23:09:12;19.50;1.00
12411;DHT22;6269;51.044;13.692;2022-08-01T23:11:49;19.40;1.00
12411;DHT22;6269;51.044;13.692;2022-08-01T23:14:27;19.50;99.90
12411;DHT22;6269;51.044;13.692;2022-08-01T23:17:04;19.50;99.90
12411;DHT22;6269;51.044;13.692;2022-08-01T23:20:01;19.40;1.00
12411;DHT22;6269;51.044;13.692;2022-08-01T23:22:37;19.30;1.00
12411;DHT22;6269;51.044;13.692;2022-08-01T23:25:14;19.20;99.90
12411;DHT22;6269;51.044;13.692;2022-08-01T23:27:49;19.10;1.00
12411;DHT22;6269;51.044;13.692;2022-08-01T23:30:39;19.10;86.60
12411;DHT22;6269;51.044;13.692;2022-08-01T23:33:14;19.10;1.00
12411;DHT22;6269;51.044;13.692;2022-08-01T23:35:50;19.10;1.00
12411;DHT22;6269;51.044;13.692;2022-08-01T23:38:25;19.00;99.90
12411;DHT22;6269;51.044;13.692;2022-08-01T23:41:00;19.10;45.40
12411;DHT22;6269;51.044;13.692;2022-08-01T23:43:46;19.10;99.90
12411;DHT22;6269;51.044;13.692;2022-08-01T23:46:26;19.10;1.00
12411;DHT22;6269;51.044;13.692;2022-08-01T23:49:01;19.10;99.90
12411;DHT22;6269;51.044;13.692;2022-08-01T23:51:37;19.20;1.00
12411;DHT22;6269;51.044;13.692;2022-08-01T23:54:12;19.10;1.00
12411;DHT22;6269;51.044;13.692;2022-08-01T23:56:48;19.20;1.00
12411;DHT22;6269;51.044;13.692;2022-08-01T23:59:23;19.30;1.00
